Time;durP1;ratioP1;P1;durP2;ratioP2;P2;SDS_P1;SDS_P2;PMS_P1;PMS_P2;Temp;Humidity;BMP_temperature;BMP_pressure;BME280_temperature;BME280_humidity;BME280_pressure;Samples;Min_cycle;Max_cycle;Signal;HPM_P1;HPM_P2
2021/01/26 00:01:05;;;;;;;3.60;3.40;;;;;;;-1.75;90.58;95097.97;5000223;28;20475;-72
2021/01/26 00:03:34;;;;;;;2.67;2.47;;;;;;;-1.83;90.70;95101.19;4998977;28;20472;-72
2021/01/26 00:06:00;;;;;;;3.77;3.57;;;;;;;-1.90;91.02;95099.22;4991945;28;21046;-72
2021/01/26 00:08:27;;;;;;;3.13;2.93;;;;;;;-1.82;90.94;95102.84;5001875;28;20497;-72
2021/01/26 00:10:54;;;;;;;4.30;4.00;;;;;;;-1.75;90.93;95098.78;4995469;28;20483;-72
2021/01/26 00:13:22;;;;;;;4.13;3.77;;;;;;;-1.84;90.70;95111.63;4996853;28;20866;-72
2021/01/26 00:15:49;;;;;;;4.63;4.30;;;;;;;-1.82;91.04;95109.78;4998706;28;20529;-72
2021/01/26 00:18:17;;;;;;;3.80;3.57;;;;;;;-1.86;91.07;95116.13;4981689;28;20472;-72
2021/01/26 00:20:44;;;;;;;3.10;2.83;;;;;;;-1.74;90.79;95120.31;4995961;28;20472;-72
2021/01/26 00:23:11;;;;;;;3.10;2.90;;;;;;;-1.89;90.81;95111.19;4990918;28;21044;-72
2021/01/26 00:25:41;;;;;;;4.43;4.13;;;;;;;-1.79;91.13;95117.28;4971878;28;20538;-72
2021/01/26 00:28:11;;;;;;;3.90;3.50;;;;;;;-1.82;91.12;95118.34;5002680;28;20491;-71
2021/01/26 00:30:40;;;;;;;3.97;3.67;;;;;;;-1.85;90.74;95117.75;4986933;28;20499;-72
2021/01/26 00:33:09;;;;;;;3.60;3.33;;;;;;;-1.84;90.30;95127.16;4996686;28;20914;-72
2021/01/26 00:35:38;;;;;;;4.37;4.07;;;;;;;-1.81;90.04;95122.59;4998371;28;20479;-72
2021/01/26 00:38:04;;;;;;;4.87;4.23;;;;;;;-1.77;89.54;95121.38;5006143;28;20519;-72
2021/01/26 00:40:33;;;;;;;3.90;3.60;;;;;;;-1.79;90.15;95132.81;4989369;28;20463;-72
2021/01/26 00:43:00;;;;;;;3.87;3.57;;;;;;;-1.86;89.81;95132.44;5000052;28;20550;-72
2021/01/26 00:45:28;;;;;;;3.67;3.37;;;;;;;-1.86;89.98;95136.81;5007356;28;20467;-72
2021/01/26 00:47:57;;;;;;;4.53;4.13;;;;;;;-1.98;90.54;95143.78;4995599;28;21008;-72
2021/01/26 00:50:27;;;;;;;3.80;3.50;;;;;;;-1.94;90.79;95136.59;4972712;28;20480;-72
2021/01/26 00:52:55;;;;;;;3.73;3.50;;;;;;;-2.06;90.91;95141.78;5000498;28;20463;-72
2021/01/26 00:55:31;;;;;;;4.83;4.47;;;;;;;-2.05;91.14;95140.84;4996143;28;20455;-72
2021/01/26 00:57:59;;;;;;;4.87;4.47;;;;;;;-2.12;91.18;95142.25;4974859;28;20475;-71
2021/01/26 01:00:28;;;;;;;4.90;4.50;;;;;;;-2.18;90.87;95147.09;4987914;28;20462;-71
2021/01/26 01:03:02;;;;;;;3.90;3.60;;;;;;;-2.09;91.18;95152.38;4979985;28;21059;-71
2021/01/26 01:05:29;;;;;;;4.40;4.03;;;;;;;-2.18;90.53;95158.25;4999731;28;20471;-72
2021/01/26 01:07:56;;;;;;;4.27;3.97;;;;;;;-2.23;90.41;95160.38;4996578;28;20475;-72
2021/01/26 01:10:26;;;;;;;4.10;3.80;;;;;;;-2.24;89.90;95160.47;4991822;28;20539;-71
2021/01/26 01:12:53;;;;;;;5.20;4.70;;;;;;;-2.35;90.06;95176.81;4978624;28;20490;-71
2021/01/26 01:15:21;;;;;;;4.23;3.90;;;;;;;-2.41;90.52;95172.09;4997381;28;20566;-71
2021/01/26 01:17:49;;;;;;;5.20;4.60;;;;;;;-2.53;89.97;95173.06;5001929;28;21039;-71
2021/01/26 01:20:19;;;;;;;6.90;5.73;;;;;;;-2.57;90.43;95181.00;4998153;28;20853;-71
2021/01/26 01:22:46;;;;;;;5.30;4.80;;;;;;;-2.65;90.96;95185.97;4997148;28;20471;-71
2021/01/26 01:25:15;;;;;;;4.37;4.07;;;;;;;-2.61;91.01;95192.53;4997604;28;20470;-71
2021/01/26 01:27:42;;;;;;;5.70;5.30;;;;;;;-2.58;91.53;95187.13;4988512;28;20555;-71
2021/01/26 01:30:11;;;;;;;5.73;5.33;;;;;;;-2.39;91.25;95196.88;5000183;28;20486;-71
2021/01/26 01:32:38;;;;;;;5.40;4.90;;;;;;;-2.27;90.77;95200.31;5003249;28;20745;-71
2021/01/26 01:35:06;;;;;;;5.70;5.20;;;;;;;-2.25;90.73;95192.44;5002926;28;20464;-71
2021/01/26 01:37:35;;;;;;;5.90;5.43;;;;;;;-2.21;90.73;95202.41;4984339;28;20463;-71
2021/01/26 01:40:01;;;;;;;7.60;6.90;;;;;;;-2.21;90.95;95199.81;5004442;28;20463;-71
2021/01/26 01:42:28;;;;;;;5.00;4.60;;;;;;;-2.11;91.08;95203.34;4999299;28;20817;-71
2021/01/26 01:44:55;;;;;;;5.80;5.27;;;;;;;-2.19;91.03;95208.31;4999888;28;20461;-71
2021/01/26 01:47:25;;;;;;;5.43;5.03;;;;;;;-2.10;90.84;95207.59;4994629;28;20973;-71
2021/01/26 01:49:54;;;;;;;6.00;5.50;;;;;;;-2.05;90.77;95205.47;4997762;28;20460;-71
2021/01/26 01:52:26;;;;;;;6.47;5.97;;;;;;;-2.09;90.32;95209.25;5003963;28;20547;-71
2021/01/26 01:55:02;;;;;;;5.67;5.20;;;;;;;-1.99;89.99;95208.53;5000004;28;20993;-71
2021/01/26 01:57:33;;;;;;;5.63;5.13;;;;;;;-2.11;90.02;95212.88;4994450;28;20487;-71
2021/01/26 02:00:05;;;;;;;5.47;4.97;;;;;;;-2.12;90.21;95209.47;5000701;28;20538;-71
2021/01/26 02:02:42;;;;;;;5.37;4.97;;;;;;;-1.99;89.74;95209.34;4990775;28;20463;-71
2021/01/26 02:05:12;;;;;;;7.93;6.70;;;;;;;-2.15;90.15;95211.47;5002617;28;20470;-71
2021/01/26 02:07:39;;;;;;;5.57;5.10;;;;;;;-1.96;89.75;95223.81;5001550;28;20498;-70
2021/01/26 02:10:08;;;;;;;5.37;4.90;;;;;;;-2.01;89.79;95222.41;4994179;28;21052;-71
2021/01/26 02:12:35;;;;;;;5.13;4.60;;;;;;;-2.10;89.50;95212.78;4996002;28;20558;-71
2021/01/26 02:15:04;;;;;;;5.93;5.43;;;;;;;-2.13;89.78;95223.31;4996256;28;20837;-71
2021/01/26 02:17:45;;;;;;;6.87;6.00;;;;;;;-2.24;90.06;95230.25;4976474;28;20468;-71
2021/01/26 02:20:49;;;;;;;5.80;5.27;;;;;;;-2.22;89.89;95234.38;5001479;28;20529;-71
2021/01/26 02:23:56;;;;;;;5.90;5.40;;;;;;;-2.13;89.37;95233.66;5003725;28;20559;-71
2021/01/26 02:27:02;;;;;;;6.03;5.57;;;;;;;-2.07;89.87;95238.38;4998520;28;20557;-71
2021/01/26 02:29:53;;;;;;;6.50;5.23;;;;;;;-2.08;89.26;95238.50;4995013;28;20737;-71
2021/01/26 02:32:26;;;;;;;7.10;6.50;;;;;;;-2.11;89.41;95242.13;4999198;28;20479;-71
2021/01/26 02:35:30;;;;;;;5.90;5.40;;;;;;;-2.06;89.55;95245.19;4990160;28;20483;-71
2021/01/26 02:38:53;;;;;;;6.63;6.13;;;;;;;-2.18;89.20;95250.47;4992592;28;20494;-71
2021/01/26 02:41:29;;;;;;;6.07;5.50;;;;;;;-2.21;89.43;95254.09;4998746;28;20838;-71
2021/01/26 02:44:05;;;;;;;6.10;5.50;;;;;;;-2.29;89.68;95256.44;4998252;28;20494;-71
2021/01/26 02:46:45;;;;;;;7.40;6.27;;;;;;;-2.25;89.31;95265.63;5001803;28;20979;-71
2021/01/26 02:49:22;;;;;;;6.47;5.87;;;;;;;-2.31;89.71;95266.06;4995550;28;20501;-71
2021/01/26 02:52:01;;;;;;;6.20;5.60;;;;;;;-2.25;89.74;95272.56;4995121;28;20530;-71
2021/01/26 02:54:32;;;;;;;7.40;6.80;;;;;;;-2.24;89.47;95276.78;5004091;28;20530;-71
2021/01/26 02:57:09;;;;;;;6.13;5.47;;;;;;;-2.24;89.67;95271.63;5004465;28;20525;-71
2021/01/26 02:59:44;;;;;;;7.33;6.03;;;;;;;-2.25;89.34;95275.97;4984306;28;20463;-71
2021/01/26 03:02:18;;;;;;;7.10;6.43;;;;;;;-2.29;89.06;95284.88;5003053;28;20468;-70
2021/01/26 03:04:51;;;;;;;6.43;5.93;;;;;;;-2.36;88.77;95291.44;4992444;28;20503;-71
2021/01/26 03:07:22;;;;;;;5.53;5.03;;;;;;;-2.60;88.29;95289.72;5002819;28;20533;-71
2021/01/26 03:09:55;;;;;;;5.50;5.03;;;;;;;-2.60;88.30;95281.16;5003271;28;20472;-71
2021/01/26 03:12:27;;;;;;;6.23;5.73;;;;;;;-2.52;88.39;95289.19;4999033;28;20487;-71
2021/01/26 03:14:59;;;;;;;9.73;6.20;;;;;;;-2.70;88.06;95300.84;4996796;28;20502;-71
2021/01/26 03:17:32;;;;;;;6.40;5.33;;;;;;;-2.63;87.65;95292.56;5008071;28;20471;-71
2021/01/26 03:20:06;;;;;;;7.07;6.23;;;;;;;-2.65;88.31;95291.84;4998793;28;20574;-71
2021/01/26 03:22:36;;;;;;;6.40;5.80;;;;;;;-2.74;88.20;95292.53;5005282;28;20530;-71
2021/01/26 03:25:06;;;;;;;5.67;5.27;;;;;;;-2.66;87.85;95297.09;4996681;28;21063;-71
2021/01/26 03:27:39;;;;;;;6.33;5.10;;;;;;;-2.93;88.13;95305.91;4997993;28;20464;-71
2021/01/26 03:30:10;;;;;;;6.03;5.47;;;;;;;-2.93;88.76;95310.25;4984009;28;20508;-71
2021/01/26 03:32:43;;;;;;;6.40;5.80;;;;;;;-2.95;88.79;95312.97;5005769;28;20499;-71
2021/01/26 03:35:11;;;;;;;7.07;6.37;;;;;;;-2.93;89.32;95312.84;5001123;28;20964;-71
2021/01/26 03:37:41;;;;;;;5.30;4.80;;;;;;;-2.86;89.12;95311.47;5003144;28;20566;-71
2021/01/26 03:40:09;;;;;;;6.20;5.60;;;;;;;-2.80;89.94;95311.03;4975050;28;20538;-71
2021/01/26 03:42:37;;;;;;;5.97;5.47;;;;;;;-2.82;89.39;95319.84;4992212;28;20495;-71
2021/01/26 03:45:06;;;;;;;5.80;5.30;;;;;;;-2.70;89.35;95327.50;4998684;28;20471;-71
2021/01/26 03:47:41;;;;;;;6.20;5.60;;;;;;;-2.65;89.13;95325.44;4999121;28;20460;-71
2021/01/26 03:50:31;;;;;;;4.97;4.53;;;;;;;-2.72;88.77;95323.41;4996285;28;20461;-71
2021/01/26 03:53:14;;;;;;;6.73;6.07;;;;;;;-2.62;88.65;95330.34;4994284;28;20491;-71
2021/01/26 03:55:48;;;;;;;5.50;5.00;;;;;;;-2.68;87.71;95315.31;5007882;28;20502;-71
2021/01/26 03:58:39;;;;;;;4.77;4.33;;;;;;;-2.65;87.79;95317.69;5002685;28;20980;-71
2021/01/26 04:01:16;;;;;;;6.13;4.70;;;;;;;-2.68;87.28;95330.78;5003560;28;20538;-71
2021/01/26 04:04:02;;;;;;;6.60;6.07;;;;;;;-2.64;86.57;95326.25;5007943;28;20467;-71
2021/01/26 04:06:36;;;;;;;4.60;4.20;;;;;;;-2.74;87.24;95330.41;4987771;28;20490;-71
2021/01/26 04:09:08;;;;;;;6.27;5.13;;;;;;;-2.77;87.34;95320.31;5004548;28;20513;-71
2021/01/26 04:11:42;;;;;;;4.87;4.43;;;;;;;-2.88;86.85;95323.69;4998748;28;20587;-71
2021/01/26 04:14:14;;;;;;;5.60;5.20;;;;;;;-2.86;87.17;95329.53;4999994;28;20463;-71
2021/01/26 04:16:48;;;;;;;6.07;5.47;;;;;;;-2.78;87.05;95331.56;4982515;28;21070;-71
2021/01/26 04:19:21;;;;;;;7.20;6.50;;;;;;;-2.75;86.85;95326.19;5004588;28;21001;-70
2021/01/26 04:21:48;;;;;;;6.30;5.73;;;;;;;-2.76;86.99;95329.69;4980568;28;20575;-71
2021/01/26 04:24:16;;;;;;;5.27;4.77;;;;;;;-2.70;87.50;95337.84;5006560;28;20539;-70
2021/01/26 04:26:45;;;;;;;6.40;5.73;;;;;;;-2.80;87.77;95338.63;5006498;28;20507;-71
2021/01/26 04:29:12;;;;;;;7.93;7.13;;;;;;;-2.75;87.33;95355.41;5003896;28;20479;-71
2021/01/26 04:31:39;;;;;;;7.27;6.53;;;;;;;-2.68;87.12;95346.28;5000303;28;20491;-71
2021/01/26 04:34:06;;;;;;;6.10;5.50;;;;;;;-2.79;87.05;95348.00;5002585;28;20460;-70
2021/01/26 04:36:33;;;;;;;7.17;6.43;;;;;;;-2.72;87.08;95342.28;5015412;28;20507;-70
2021/01/26 04:39:00;;;;;;;6.33;5.50;;;;;;;-2.63;86.40;95341.63;4984153;28;20907;-70
2021/01/26 04:41:41;;;;;;;6.47;5.87;;;;;;;-2.69;85.91;95344.66;4977767;28;20490;-70
2021/01/26 04:44:29;;;;;;;6.17;5.57;;;;;;;-2.78;86.15;95350.47;4991585;28;21150;-70
2021/01/26 04:47:13;;;;;;;6.10;5.60;;;;;;;-2.64;85.12;95347.72;4988511;28;20478;-70
2021/01/26 04:49:51;;;;;;;7.63;6.67;;;;;;;-2.71;85.44;95366.38;4997369;28;20463;-70
2021/01/26 04:52:30;;;;;;;5.47;4.60;;;;;;;-2.62;85.31;95361.34;4986256;28;20591;-70
2021/01/26 04:55:05;;;;;;;7.43;6.80;;;;;;;-2.78;85.25;95355.63;5003346;28;20520;-70
2021/01/26 04:57:53;;;;;;;6.50;5.90;;;;;;;-2.82;85.80;95364.56;5004288;28;20550;-70
2021/01/26 05:00:34;;;;;;;6.37;5.87;;;;;;;-2.73;85.76;95369.06;5000946;28;20463;-70
2021/01/26 05:03:18;;;;;;;5.03;4.63;;;;;;;-2.78;84.92;95365.16;4999171;28;20811;-70
2021/01/26 05:05:49;;;;;;;6.63;5.67;;;;;;;-2.80;85.25;95362.69;4993429;28;20491;-70
2021/01/26 05:08:24;;;;;;;5.30;4.87;;;;;;;-2.81;85.13;95371.38;4989407;28;20456;-70
2021/01/26 05:10:57;;;;;;;6.43;6.03;;;;;;;-2.79;84.86;95369.50;4982809;28;20527;-70
2021/01/26 05:13:28;;;;;;;6.17;5.50;;;;;;;-2.87;85.35;95364.88;4998505;28;20559;-70
2021/01/26 05:16:00;;;;;;;5.70;4.83;;;;;;;-2.88;85.08;95365.81;4980269;28;20842;-70
2021/01/26 05:18:38;;;;;;;7.07;5.83;;;;;;;-2.91;85.05;95365.22;5001465;28;20903;-70
2021/01/26 05:21:10;;;;;;;8.57;4.97;;;;;;;-3.00;84.73;95376.19;4976289;28;20863;-70
2021/01/26 05:23:43;;;;;;;5.90;5.37;;;;;;;-2.96;84.77;95382.78;5005522;28;20558;-70
2021/01/26 05:26:12;;;;;;;6.30;5.80;;;;;;;-2.95;84.39;95374.09;4997269;28;20459;-70
2021/01/26 05:28:43;;;;;;;4.87;4.47;;;;;;;-2.97;84.31;95378.53;5001331;28;20537;-70
2021/01/26 05:31:15;;;;;;;5.20;4.70;;;;;;;-3.00;84.58;95373.59;4996780;28;20463;-70
2021/01/26 05:33:44;;;;;;;6.00;5.47;;;;;;;-2.91;83.71;95375.53;4992419;28;20518;-70
2021/01/26 05:36:12;;;;;;;4.87;4.33;;;;;;;-2.94;83.43;95360.25;4999704;28;20483;-70
2021/01/26 05:38:39;;;;;;;6.87;5.47;;;;;;;-2.87;83.39;95374.38;4982860;28;20548;-70
2021/01/26 05:41:09;;;;;;;4.53;4.10;;;;;;;-2.80;82.70;95378.16;4999263;28;20911;-70
2021/01/26 05:43:37;;;;;;;6.53;4.70;;;;;;;-2.86;82.53;95369.09;4999600;28;20472;-70
2021/01/26 05:46:08;;;;;;;6.20;5.60;;;;;;;-2.88;82.47;95377.88;4978861;28;20496;-70
2021/01/26 05:48:50;;;;;;;6.83;4.10;;;;;;;-2.90;82.58;95375.44;4993427;28;20476;-70
2021/01/26 05:51:22;;;;;;;4.20;3.90;;;;;;;-2.82;82.74;95385.22;4998655;28;20887;-70
2021/01/26 05:53:54;;;;;;;8.07;5.57;;;;;;;-2.87;82.71;95369.22;4992799;28;20843;-70
2021/01/26 05:56:22;;;;;;;4.30;3.87;;;;;;;-2.74;82.35;95382.91;5005142;28;20463;-70
2021/01/26 05:58:49;;;;;;;3.60;3.37;;;;;;;-2.83;82.03;95398.19;5002712;28;20583;-70
2021/01/26 06:01:26;;;;;;;4.00;3.63;;;;;;;-2.77;82.08;95377.94;5005019;28;20463;-70
2021/01/26 06:04:07;;;;;;;4.57;4.17;;;;;;;-2.84;81.93;95387.06;4994426;28;20491;-70
2021/01/26 06:06:48;;;;;;;4.80;4.33;;;;;;;-2.76;81.53;95392.50;5000872;28;21000;-70
2021/01/26 06:09:28;;;;;;;5.20;4.70;;;;;;;-2.84;81.97;95375.91;4985031;28;20503;-70
2021/01/26 06:12:10;;;;;;;3.87;3.57;;;;;;;-2.77;81.77;95380.53;4995843;28;20844;-70
2021/01/26 06:14:38;;;;;;;4.27;3.87;;;;;;;-2.69;81.15;95380.81;4997963;28;20538;-70
2021/01/26 06:17:07;;;;;;;4.77;4.30;;;;;;;-2.75;81.25;95376.06;5000413;28;20508;-71
2021/01/26 06:19:37;;;;;;;4.20;3.83;;;;;;;-2.68;80.40;95372.13;5002853;28;20549;-70
2021/01/26 06:22:05;;;;;;;6.63;5.13;;;;;;;-2.76;80.61;95360.69;4999715;28;20455;-70
2021/01/26 06:24:35;;;;;;;4.40;4.10;;;;;;;-2.70;80.44;95374.00;4987424;28;20492;-70
2021/01/26 06:27:37;;;;;;;3.13;2.87;;;;;;;-2.67;80.38;95378.09;4998362;28;20614;-70
2021/01/26 06:30:24;;;;;;;4.43;3.97;;;;;;;-2.66;80.16;95359.91;4993546;28;20544;-70
2021/01/26 06:33:10;;;;;;;6.93;4.23;;;;;;;-2.63;79.58;95379.56;4998500;28;20478;-69
2021/01/26 06:35:47;;;;;;;2.53;2.33;;;;;;;-2.65;79.58;95379.66;5003863;28;20479;-68
2021/01/26 06:38:33;;;;;;;3.27;2.97;;;;;;;-2.64;78.70;95377.91;4992171;28;21050;-69
2021/01/26 06:41:12;;;;;;;2.77;2.57;;;;;;;-2.72;79.78;95375.88;4999612;28;20797;-69
2021/01/26 06:43:59;;;;;;;3.73;3.43;;;;;;;-2.67;79.58;95368.59;5000546;28;21007;-69
2021/01/26 06:46:43;;;;;;;2.23;2.07;;;;;;;-2.62;78.94;95376.84;5003516;28;20463;-68
2021/01/26 06:49:29;;;;;;;3.10;2.80;;;;;;;-2.67;79.08;95386.69;4991788;28;20475;-69
2021/01/26 06:52:16;;;;;;;3.73;3.33;;;;;;;-2.55;78.97;95394.50;4999046;28;20849;-69
2021/01/26 06:54:57;;;;;;;3.53;3.10;;;;;;;-2.57;79.44;95399.75;4995869;28;20464;-69
2021/01/26 06:57:58;;;;;;;3.80;3.03;;;;;;;-2.60;79.69;95395.63;4996018;28;20450;-69
2021/01/26 07:00:39;;;;;;;3.47;3.17;;;;;;;-2.61;79.18;95406.91;4975454;28;20545;-69
2021/01/26 07:03:29;;;;;;;3.17;2.80;;;;;;;-2.61;79.93;95394.00;4978784;28;20531;-68
2021/01/26 07:06:07;;;;;;;3.23;3.03;;;;;;;-2.59;79.59;95399.88;4992274;28;20829;-68
2021/01/26 07:09:08;;;;;;;3.63;3.33;;;;;;;-2.55;79.25;95402.25;4995340;28;20496;-68
2021/01/26 07:11:52;;;;;;;1.60;1.50;;;;;;;-2.61;79.79;95382.84;4991108;28;20626;-70
2021/01/26 07:14:31;;;;;;;6.13;3.00;;;;;;;-2.52;79.23;95381.34;4990937;28;20467;-70
2021/01/26 07:17:01;;;;;;;3.13;2.87;;;;;;;-2.47;78.39;95405.94;4972312;28;20551;-68
2021/01/26 07:19:54;;;;;;;3.47;2.83;;;;;;;-2.44;79.20;95403.13;4997086;28;20766;-69
2021/01/26 07:23:06;;;;;;;2.97;2.67;;;;;;;-2.47;78.85;95415.41;4997720;28;20817;-68
2021/01/26 07:25:52;;;;;;;2.77;2.50;;;;;;;-2.38;78.36;95425.09;4975418;28;20966;-69
2021/01/26 07:28:53;;;;;;;2.77;2.13;;;;;;;-2.38;78.91;95414.75;4985290;28;20671;-69
2021/01/26 07:31:23;;;;;;;3.03;2.83;;;;;;;-2.33;78.34;95423.81;4998524;28;20456;-68
2021/01/26 07:33:58;;;;;;;2.93;2.73;;;;;;;-2.40;78.73;95417.44;4997336;28;20483;-68
2021/01/26 07:36:29;;;;;;;2.27;1.80;;;;;;;-2.30;78.31;95423.59;4979153;28;20479;-68
2021/01/26 07:39:03;;;;;;;1.93;1.83;;;;;;;-2.32;79.26;95424.66;5004695;28;20856;-68
2021/01/26 07:41:55;;;;;;;3.83;2.00;;;;;;;-2.36;79.17;95438.75;4969815;28;20467;-68
2021/01/26 07:44:29;;;;;;;2.10;2.00;;;;;;;-2.37;79.67;95450.00;4995012;28;20461;-68
2021/01/26 07:47:04;;;;;;;2.00;1.80;;;;;;;-2.33;80.22;95438.50;4990048;28;21232;-68
2021/01/26 07:49:41;;;;;;;2.07;1.73;;;;;;;-2.40;79.79;95432.13;5007709;28;20463;-68
2021/01/26 07:52:09;;;;;;;2.10;1.90;;;;;;;-2.31;79.70;95441.81;4985656;28;20501;-68
2021/01/26 07:54:42;;;;;;;3.80;3.30;;;;;;;-2.35;80.08;95446.38;5006029;28;20517;-68
2021/01/26 07:57:10;;;;;;;1.93;1.83;;;;;;;-2.33;79.83;95454.84;4996863;28;20559;-69
2021/01/26 07:59:42;;;;;;;2.00;1.90;;;;;;;-2.34;79.81;95457.53;4975105;28;20483;-68
2021/01/26 08:02:18;;;;;;;3.30;2.93;;;;;;;-2.34;80.77;95447.19;4984683;28;21040;-68
2021/01/26 08:04:46;;;;;;;1.60;1.50;;;;;;;-2.34;80.53;95447.19;4999624;28;20828;-68
2021/01/26 08:07:23;;;;;;;2.20;1.87;;;;;;;-2.32;80.99;95455.66;4999095;28;20472;-68
2021/01/26 08:09:52;;;;;;;2.90;2.33;;;;;;;-2.39;81.12;95446.69;4995282;28;20920;-69
2021/01/26 08:12:37;;;;;;;3.13;2.40;;;;;;;-2.37;81.21;95458.59;4996792;28;20491;-68
2021/01/26 08:15:13;;;;;;;3.03;2.83;;;;;;;-2.26;81.82;95450.06;4978103;28;20618;-68
2021/01/26 08:17:40;;;;;;;3.23;2.77;;;;;;;-2.35;81.31;95451.53;5007296;28;20482;-68
2021/01/26 08:20:11;;;;;;;2.47;2.27;;;;;;;-2.33;81.77;95443.69;4978670;28;20471;-69
2021/01/26 08:22:40;;;;;;;2.93;2.60;;;;;;;-2.30;81.90;95453.78;4985162;28;20906;-68
2021/01/26 08:25:10;;;;;;;2.07;1.93;;;;;;;-2.36;82.36;95460.22;5006081;28;20459;-68
2021/01/26 08:27:57;;;;;;;3.80;2.57;;;;;;;-2.32;82.27;95451.31;5006834;28;20495;-68
2021/01/26 08:30:59;;;;;;;2.70;2.43;;;;;;;-2.27;81.45;95458.75;4999835;28;20455;-68
2021/01/26 08:33:29;;;;;;;1.60;1.50;;;;;;;-2.17;81.37;95462.31;4987735;28;20523;-68
2021/01/26 08:36:10;;;;;;;2.63;1.73;;;;;;;-2.22;82.26;95464.41;4987829;28;20827;-68
2021/01/26 08:38:53;;;;;;;2.00;1.90;;;;;;;-2.14;81.39;95469.00;5004549;28;20479;-68
2021/01/26 08:41:48;;;;;;;4.50;2.83;;;;;;;-2.13;82.14;95476.66;4992880;28;20534;-68
2021/01/26 08:44:51;;;;;;;3.90;3.53;;;;;;;-2.09;82.09;95478.09;4948439;28;20501;-68
2021/01/26 08:47:43;;;;;;;2.73;2.07;;;;;;;-2.12;82.00;95473.13;5006449;28;20466;-68
2021/01/26 08:50:14;;;;;;;3.17;2.77;;;;;;;-2.17;82.03;95489.94;5004796;28;20851;-68
2021/01/26 08:52:41;;;;;;;2.30;2.10;;;;;;;-2.07;82.35;95476.22;4995973;28;21043;-68
2021/01/26 08:55:09;;;;;;;2.53;2.27;;;;;;;-2.17;82.58;95477.00;4969832;28;20472;-68
2021/01/26 08:57:43;;;;;;;4.37;2.23;;;;;;;-2.02;82.12;95494.78;4998670;28;20477;-68
2021/01/26 09:00:29;;;;;;;2.80;2.60;;;;;;;-2.08;82.29;95484.91;4998972;28;20459;-68
2021/01/26 09:02:57;;;;;;;4.20;3.80;;;;;;;-2.07;82.65;95498.66;4998284;28;20494;-68
2021/01/26 09:05:55;;;;;;;3.37;3.07;;;;;;;-2.02;81.95;95504.31;5007187;28;20463;-68
2021/01/26 09:08:50;;;;;;;4.60;3.43;;;;;;;-2.02;82.31;95499.13;4907579;29;20538;-68
2021/01/26 09:11:28;;;;;;;2.90;2.70;;;;;;;-1.99;82.58;95513.63;4981287;28;20526;-68
2021/01/26 09:14:03;;;;;;;4.10;3.70;;;;;;;-2.04;82.40;95514.75;4994414;28;20518;-68
2021/01/26 09:16:31;;;;;;;3.97;3.67;;;;;;;-1.97;82.27;95522.91;4978721;28;20976;-68
2021/01/26 09:19:04;;;;;;;4.80;4.47;;;;;;;-1.98;81.94;95512.69;4998810;28;21012;-68
2021/01/26 09:21:32;;;;;;;5.97;4.00;;;;;;;-1.96;81.86;95529.72;5004415;28;20464;-68
2021/01/26 09:24:00;;;;;;;3.50;3.20;;;;;;;-1.93;82.25;95529.50;4999172;28;20985;-68
2021/01/26 09:26:30;;;;;;;2.87;2.63;;;;;;;-1.77;82.10;95530.03;4997596;28;21064;-68
2021/01/26 09:28:57;;;;;;;3.93;3.03;;;;;;;-1.70;81.84;95535.59;4989164;28;20485;-68
2021/01/26 09:31:26;;;;;;;4.93;3.53;;;;;;;-1.73;81.93;95541.81;4984891;28;20545;-68
2021/01/26 09:34:05;;;;;;;3.90;3.50;;;;;;;-1.70;82.87;95550.28;4973584;28;20462;-68
2021/01/26 09:36:34;;;;;;;5.87;4.60;;;;;;;-1.89;83.30;95545.63;4995072;28;20521;-68
2021/01/26 09:39:05;;;;;;;2.77;2.53;;;;;;;-1.88;83.74;95532.59;4988789;28;20460;-68
2021/01/26 09:41:34;;;;;;;6.07;3.63;;;;;;;-1.80;83.76;95544.97;5004507;28;20555;-67
2021/01/26 09:44:05;;;;;;;4.00;3.70;;;;;;;-1.73;83.17;95541.81;4987723;28;20814;-68
2021/01/26 09:46:34;;;;;;;4.33;4.03;;;;;;;-1.68;82.85;95544.06;5001297;28;20919;-68
2021/01/26 09:49:14;;;;;;;5.80;3.67;;;;;;;-1.53;83.01;95542.94;5005982;28;20849;-68
2021/01/26 09:51:44;;;;;;;4.00;3.70;;;;;;;-1.44;81.49;95551.81;4992731;28;20535;-68
2021/01/26 09:54:15;;;;;;;5.60;4.60;;;;;;;-1.38;81.60;95545.31;4991641;28;20491;-69
2021/01/26 09:56:43;;;;;;;5.67;5.17;;;;;;;-1.50;80.76;95553.06;5005618;28;20562;-69
2021/01/26 09:59:13;;;;;;;3.33;3.07;;;;;;;-1.50;82.00;95552.25;4987861;28;21023;-69
2021/01/26 10:01:41;;;;;;;2.77;2.53;;;;;;;-1.47;81.64;95555.41;5003672;28;20472;-68
2021/01/26 10:04:10;;;;;;;3.57;3.27;;;;;;;-1.59;82.21;95564.09;4985908;28;20459;-68
2021/01/26 10:06:38;;;;;;;5.73;4.73;;;;;;;-1.56;82.26;95558.69;5001923;28;20563;-68
2021/01/26 10:09:19;;;;;;;5.60;4.50;;;;;;;-1.54;82.12;95545.66;5004887;28;20472;-69
2021/01/26 10:11:46;;;;;;;5.10;4.30;;;;;;;-1.50;81.82;95536.72;4996984;28;20486;-69
2021/01/26 10:14:19;;;;;;;5.27;3.30;;;;;;;-1.45;82.07;95550.97;4996676;28;20518;-69
2021/01/26 10:16:49;;;;;;;5.57;5.07;;;;;;;-1.37;82.02;95567.69;5002908;28;20538;-69
2021/01/26 10:19:24;;;;;;;5.07;3.83;;;;;;;-1.38;81.80;95556.50;4996867;28;20488;-68
2021/01/26 10:21:52;;;;;;;3.30;3.00;;;;;;;-1.32;81.81;95560.41;4999855;28;20525;-69
2021/01/26 10:24:27;;;;;;;6.43;2.80;;;;;;;-1.31;81.77;95568.06;4993087;28;20510;-69
2021/01/26 10:27:07;;;;;;;4.23;3.83;;;;;;;-1.44;82.60;95568.16;4995197;28;20555;-69
2021/01/26 10:29:37;;;;;;;4.23;3.93;;;;;;;-1.52;83.25;95554.94;5000663;28;20463;-69
2021/01/26 10:32:05;;;;;;;5.63;4.87;;;;;;;-1.51;83.80;95556.59;5005366;28;20988;-69
2021/01/26 10:34:42;;;;;;;4.93;4.47;;;;;;;-1.45;83.65;95556.16;5005698;28;20553;-68
2021/01/26 10:37:12;;;;;;;5.40;4.40;;;;;;;-1.40;83.27;95552.38;5002670;28;20545;-69
2021/01/26 10:39:40;;;;;;;4.30;4.00;;;;;;;-1.25;83.36;95538.31;5003193;28;20992;-69
2021/01/26 10:42:15;;;;;;;3.83;3.47;;;;;;;-1.27;82.71;95550.56;4985236;28;20879;-68
2021/01/26 10:44:47;;;;;;;5.57;3.43;;;;;;;-1.51;83.23;95550.59;4994616;28;20474;-69
2021/01/26 10:47:16;;;;;;;3.90;3.57;;;;;;;-1.53;83.45;95555.88;5003032;28;20483;-69
2021/01/26 10:49:52;;;;;;;4.53;4.13;;;;;;;-1.58;83.64;95534.69;4995524;28;20500;-68
2021/01/26 10:52:36;;;;;;;4.37;4.00;;;;;;;-1.54;83.64;95564.59;4996569;28;20521;-69
2021/01/26 10:55:03;;;;;;;4.43;4.03;;;;;;;-1.35;83.11;95563.22;4986280;28;20495;-68
2021/01/26 10:57:31;;;;;;;5.40;3.73;;;;;;;-1.26;82.57;95567.72;4983328;28;20539;-68
2021/01/26 10:59:58;;;;;;;4.63;4.23;;;;;;;-1.32;82.50;95566.41;4996694;28;20479;-69
2021/01/26 11:02:25;;;;;;;4.03;3.73;;;;;;;-1.36;82.89;95566.75;5004504;28;20548;-69
2021/01/26 11:04:53;;;;;;;3.80;3.40;;;;;;;-1.34;83.20;95572.66;5003738;28;20552;-69
2021/01/26 11:07:20;;;;;;;4.03;3.73;;;;;;;-1.47;82.67;95567.53;4999782;28;20987;-69
2021/01/26 11:09:49;;;;;;;3.00;2.53;;;;;;;-1.50;83.18;95576.34;4991233;28;20549;-68
2021/01/26 11:12:17;;;;;;;3.70;3.23;;;;;;;-1.49;83.11;95575.41;5001627;28;20472;-69
2021/01/26 11:14:43;;;;;;;4.77;2.87;;;;;;;-1.44;82.60;95588.84;4995200;28;20547;-68
2021/01/26 11:17:10;;;;;;;5.80;3.07;;;;;;;-1.38;82.07;95587.56;5004871;28;20476;-68
2021/01/26 11:19:37;;;;;;;5.43;2.57;;;;;;;-1.37;82.21;95572.84;5004642;28;20472;-69
2021/01/26 11:22:05;;;;;;;16.50;3.53;;;;;;;-1.38;82.31;95591.91;5001052;28;20538;-69
2021/01/26 11:24:32;;;;;;;2.90;2.60;;;;;;;-1.29;82.10;95591.22;5008367;28;21232;-68
2021/01/26 11:26:59;;;;;;;3.10;2.80;;;;;;;-1.31;81.54;95582.75;5009107;28;20471;-69
2021/01/26 11:29:25;;;;;;;3.87;2.50;;;;;;;-1.30;81.14;95582.66;5008542;28;20753;-69
2021/01/26 11:31:52;;;;;;;2.90;2.70;;;;;;;-1.39;81.15;95569.56;5005952;28;20498;-69
2021/01/26 11:34:20;;;;;;;5.97;3.63;;;;;;;-1.38;80.91;95587.56;4998753;28;20487;-69
2021/01/26 11:36:46;;;;;;;2.93;2.73;;;;;;;-1.39;80.50;95591.09;5004308;28;20987;-68
2021/01/26 11:39:14;;;;;;;2.33;2.00;;;;;;;-1.32;80.63;95575.94;4990740;28;20778;-69
2021/01/26 11:41:41;;;;;;;5.87;3.50;;;;;;;-1.29;80.59;95596.41;4999601;28;20526;-69
2021/01/26 11:44:08;;;;;;;2.33;2.13;;;;;;;-1.25;80.75;95608.22;4988213;28;20472;-69
2021/01/26 11:46:35;;;;;;;3.50;2.40;;;;;;;-1.03;79.77;95607.44;4999145;28;20549;-69
2021/01/26 11:49:02;;;;;;;3.87;2.47;;;;;;;-1.10;79.38;95601.88;4992130;28;21078;-69
2021/01/26 11:51:29;;;;;;;1.77;1.67;;;;;;;-1.06;79.54;95592.97;4981473;28;20541;-69
2021/01/26 11:53:57;;;;;;;2.47;2.13;;;;;;;-0.97;78.97;95597.44;5007185;28;20486;-69
2021/01/26 11:56:25;;;;;;;1.90;1.47;;;;;;;-0.96;78.89;95593.91;5008046;28;20554;-69
2021/01/26 11:58:51;;;;;;;3.20;2.27;;;;;;;-1.06;78.35;95590.38;5007373;28;20487;-69
2021/01/26 12:01:18;;;;;;;4.90;2.80;;;;;;;-1.21;79.39;95601.84;4996611;28;20500;-69
2021/01/26 12:03:45;;;;;;;2.70;2.50;;;;;;;-1.24;80.26;95599.50;5007618;28;20463;-69
2021/01/26 12:06:13;;;;;;;4.57;2.70;;;;;;;-1.27;80.37;95574.66;4987377;28;21092;-69